sensor_id;sensor_type;location;lat;lon;timestamp;temperature;humidity
8711;DHT22;4392;47.400;8.062;2022-12-24T00:00:12;13.90;99.90
8711;DHT22;4392;47.400;8.062;2022-12-24T00:02:38;13.80;99.90
8711;DHT22;4392;47.400;8.062;2022-12-24T00:05:04;13.60;99.90
8711;DHT22;4392;47.400;8.062;2022-12-24T00:07:33;13.50;99.90
8711;DHT22;4392;47.400;8.062;2022-12-24T00:09:59;13.50;99.90
8711;DHT22;4392;47.400;8.062;2022-12-24T00:12:25;13.40;99.90
8711;DHT22;4392;47.400;8.062;2022-12-24T00:14:50;13.40;99.90
8711;DHT22;4392;47.400;8.062;2022-12-24T00:17:18;13.30;99.90
8711;DHT22;4392;47.400;8.062;2022-12-24T00:19:44;13.30;99.90
8711;DHT22;4392;47.400;8.062;2022-12-24T00:22:10;13.30;99.90
8711;DHT22;4392;47.400;8.062;2022-12-24T00:24:37;13.30;99.90
8711;DHT22;4392;47.400;8.062;2022-12-24T00:27:04;13.30;99.90
8711;DHT22;4392;47.400;8.062;2022-12-24T00:29:33;13.20;99.90
8711;DHT22;4392;47.400;8.062;2022-12-24T00:31:59;13.30;99.90
8711;DHT22;4392;47.400;8.062;2022-12-24T00:34:25;13.30;99.90
8711;DHT22;4392;47.400;8.062;2022-12-24T00:36:51;13.40;99.90
8711;DHT22;4392;47.400;8.062;2022-12-24T00:39:17;13.40;99.90
8711;DHT22;4392;47.400;8.062;2022-12-24T00:41:43;13.50;99.90
8711;DHT22;4392;47.400;8.062;2022-12-24T00:44:09;13.50;99.90
8711;DHT22;4392;47.400;8.062;2022-12-24T00:46:37;13.50;99.90
8711;DHT22;4392;47.400;8.062;2022-12-24T00:49:06;13.50;99.90
8711;DHT22;4392;47.400;8.062;2022-12-24T00:51:33;13.40;99.90
8711;DHT22;4392;47.400;8.062;2022-12-24T00:53:59;13.40;99.90
8711;DHT22;4392;47.400;8.062;2022-12-24T00:56:25;14.10;99.90
8711;DHT22;4392;47.400;8.062;2022-12-24T00:58:53;14.70;99.90
8711;DHT22;4392;47.400;8.062;2022-12-24T01:01:18;15.00;99.90
8711;DHT22;4392;47.400;8.062;2022-12-24T01:03:47;15.20;99.90
8711;DHT22;4392;47.400;8.062;2022-12-24T01:06:16;15.40;99.90
8711;DHT22;4392;47.400;8.062;2022-12-24T01:08:42;15.50;99.90
8711;DHT22;4392;47.400;8.062;2022-12-24T01:11:09;15.10;99.90
8711;DHT22;4392;47.400;8.062;2022-12-24T01:13:37;14.90;99.90
8711;DHT22;4392;47.400;8.062;2022-12-24T01:16:18;14.80;99.90
8711;DHT22;4392;47.400;8.062;2022-12-24T01:18:44;14.70;99.90
8711;DHT22;4392;47.400;8.062;2022-12-24T01:21:10;14.70;99.90
8711;DHT22;4392;47.400;8.062;2022-12-24T01:23:36;14.70;99.90
8711;DHT22;4392;47.400;8.062;2022-12-24T01:26:03;14.70;99.90
8711;DHT22;4392;47.400;8.062;2022-12-24T01:28:30;14.70;99.90
8711;DHT22;4392;47.400;8.062;2022-12-24T01:30:56;14.70;99.90
8711;DHT22;4392;47.400;8.062;2022-12-24T01:33:21;14.60;99.90
8711;DHT22;4392;47.400;8.062;2022-12-24T01:35:47;14.70;99.90
8711;DHT22;4392;47.400;8.062;2022-12-24T01:38:13;14.80;99.90
8711;DHT22;4392;47.400;8.062;2022-12-24T01:40:41;14.80;99.90
8711;DHT22;4392;47.400;8.062;2022-12-24T01:43:29;14.80;99.90
8711;DHT22;4392;47.400;8.062;2022-12-24T01:46:28;14.80;99.90
8711;DHT22;4392;47.400;8.062;2022-12-24T01:48:57;14.80;99.90
8711;DHT22;4392;47.400;8.062;2022-12-24T01:51:32;14.60;99.90
8711;DHT22;4392;47.400;8.062;2022-12-24T01:56:32;14.00;99.90
8711;DHT22;4392;47.400;8.062;2022-12-24T01:59:06;13.70;99.90
8711;DHT22;4392;47.400;8.062;2022-12-24T02:01:32;13.70;99.90
8711;DHT22;4392;47.400;8.062;2022-12-24T02:03:59;13.70;99.90
8711;DHT22;4392;47.400;8.062;2022-12-24T02:06:27;13.70;99.90
8711;DHT22;4392;47.400;8.062;2022-12-24T02:08:53;13.80;99.90
8711;DHT22;4392;47.400;8.062;2022-12-24T02:11:21;14.50;99.90
8711;DHT22;4392;47.400;8.062;2022-12-24T02:13:50;14.20;99.90
8711;DHT22;4392;47.400;8.062;2022-12-24T02:16:29;14.10;99.90
8711;DHT22;4392;47.400;8.062;2022-12-24T02:26:59;13.70;99.90
8711;DHT22;4392;47.400;8.062;2022-12-24T02:32:22;13.60;99.90
8711;DHT22;4392;47.400;8.062;2022-12-24T02:37:42;13.60;99.90
8711;DHT22;4392;47.400;8.062;2022-12-24T02:40:17;13.60;99.90
8711;DHT22;4392;47.400;8.062;2022-12-24T02:42:49;13.60;99.90
8711;DHT22;4392;47.400;8.062;2022-12-24T02:45:18;13.50;99.90
8711;DHT22;4392;47.400;8.062;2022-12-24T02:47:45;13.50;99.90
8711;DHT22;4392;47.400;8.062;2022-12-24T02:50:14;13.40;99.90
8711;DHT22;4392;47.400;8.062;2022-12-24T02:52:45;13.70;99.90
8711;DHT22;4392;47.400;8.062;2022-12-24T02:55:17;13.70;99.90
8711;DHT22;4392;47.400;8.062;2022-12-24T03:00:17;13.60;99.90
8711;DHT22;4392;47.400;8.062;2022-12-24T03:05:36;13.50;99.90
8711;DHT22;4392;47.400;8.062;2022-12-24T03:10:54;13.50;99.90
8711;DHT22;4392;47.400;8.062;2022-12-24T03:13:22;13.50;99.90
8711;DHT22;4392;47.400;8.062;2022-12-24T03:15:49;13.50;99.90
8711;DHT22;4392;47.400;8.062;2022-12-24T03:18:24;13.50;99.90
8711;DHT22;4392;47.400;8.062;2022-12-24T03:21:04;13.80;99.90
8711;DHT22;4392;47.400;8.062;2022-12-24T03:23:32;13.90;99.90
8711;DHT22;4392;47.400;8.062;2022-12-24T03:26:00;13.60;99.90
8711;DHT22;4392;47.400;8.062;2022-12-24T03:28:27;13.50;99.90
8711;DHT22;4392;47.400;8.062;2022-12-24T03:30:53;13.40;99.90
8711;DHT22;4392;47.400;8.062;2022-12-24T03:33:20;13.30;99.90
8711;DHT22;4392;47.400;8.062;2022-12-24T03:35:46;13.30;99.90
8711;DHT22;4392;47.400;8.062;2022-12-24T03:38:12;13.30;99.90
8711;DHT22;4392;47.400;8.062;2022-12-24T03:40:38;13.70;99.90
8711;DHT22;4392;47.400;8.062;2022-12-24T03:43:03;14.50;99.90
8711;DHT22;4392;47.400;8.062;2022-12-24T03:45:29;14.90;99.90
8711;DHT22;4392;47.400;8.062;2022-12-24T03:47:55;15.10;99.90
8711;DHT22;4392;47.400;8.062;2022-12-24T03:50:21;15.20;99.90
8711;DHT22;4392;47.400;8.062;2022-12-24T03:52:47;15.30;99.90
8711;DHT22;4392;47.400;8.062;2022-12-24T03:55:12;15.30;99.90
8711;DHT22;4392;47.400;8.062;2022-12-24T03:57:38;15.30;99.90
8711;DHT22;4392;47.400;8.062;2022-12-24T04:00:05;15.40;99.90
8711;DHT22;4392;47.400;8.062;2022-12-24T04:02:32;15.50;99.90
8711;DHT22;4392;47.400;8.062;2022-12-24T04:04:58;15.60;99.90
8711;DHT22;4392;47.400;8.062;2022-12-24T04:07:24;15.60;99.90
8711;DHT22;4392;47.400;8.062;2022-12-24T04:09:49;15.60;99.60
8711;DHT22;4392;47.400;8.062;2022-12-24T04:12:18;15.60;97.30
8711;DHT22;4392;47.400;8.062;2022-12-24T04:14:44;14.70;95.00
8711;DHT22;4392;47.400;8.062;2022-12-24T04:17:10;14.10;97.00
8711;DHT22;4392;47.400;8.062;2022-12-24T04:19:35;14.00;98.60
8711;DHT22;4392;47.400;8.062;2022-12-24T04:22:02;13.90;98.60
8711;DHT22;4392;47.400;8.062;2022-12-24T04:24:27;13.80;99.50
8711;DHT22;4392;47.400;8.062;2022-12-24T04:26:53;13.90;99.90
8711;DHT22;4392;47.400;8.062;2022-12-24T04:29:19;14.00;99.90
8711;DHT22;4392;47.400;8.062;2022-12-24T04:31:44;14.60;99.90
8711;DHT22;4392;47.400;8.062;2022-12-24T04:34:10;15.00;99.90
8711;DHT22;4392;47.400;8.062;2022-12-24T04:36:36;14.70;99.90
8711;DHT22;4392;47.400;8.062;2022-12-24T04:39:02;14.40;99.90
8711;DHT22;4392;47.400;8.062;2022-12-24T04:41:29;14.00;98.50
8711;DHT22;4392;47.400;8.062;2022-12-24T04:43:54;13.80;98.70
8711;DHT22;4392;47.400;8.062;2022-12-24T04:46:23;13.80;99.00
8711;DHT22;4392;47.400;8.062;2022-12-24T04:48:51;13.70;98.60
8711;DHT22;4392;47.400;8.062;2022-12-24T04:51:17;13.70;97.90
8711;DHT22;4392;47.400;8.062;2022-12-24T04:53:43;13.60;98.40
8711;DHT22;4392;47.400;8.062;2022-12-24T04:56:15;13.60;99.30
8711;DHT22;4392;47.400;8.062;2022-12-24T04:58:41;14.30;99.90
8711;DHT22;4392;47.400;8.062;2022-12-24T05:01:11;13.80;98.10
8711;DHT22;4392;47.400;8.062;2022-12-24T05:03:38;13.50;99.10
8711;DHT22;4392;47.400;8.062;2022-12-24T05:06:06;13.30;99.80
8711;DHT22;4392;47.400;8.062;2022-12-24T05:08:32;13.20;99.90
8711;DHT22;4392;47.400;8.062;2022-12-24T05:10:59;13.20;99.90
8711;DHT22;4392;47.400;8.062;2022-12-24T05:13:26;13.30;99.90
8711;DHT22;4392;47.400;8.062;2022-12-24T05:15:52;13.30;99.90
8711;DHT22;4392;47.400;8.062;2022-12-24T05:18:17;13.30;99.90
8711;DHT22;4392;47.400;8.062;2022-12-24T05:20:43;13.30;99.90
8711;DHT22;4392;47.400;8.062;2022-12-24T05:23:18;13.30;99.90
8711;DHT22;4392;47.400;8.062;2022-12-24T05:26:04;13.30;99.90
8711;DHT22;4392;47.400;8.062;2022-12-24T05:28:47;14.50;99.90
8711;DHT22;4392;47.400;8.062;2022-12-24T05:31:13;14.60;99.90
8711;DHT22;4392;47.400;8.062;2022-12-24T05:33:38;14.70;99.90
8711;DHT22;4392;47.400;8.062;2022-12-24T05:36:04;14.70;99.90
8711;DHT22;4392;47.400;8.062;2022-12-24T05:38:30;14.90;99.90
8711;DHT22;4392;47.400;8.062;2022-12-24T05:40:56;15.00;99.90
8711;DHT22;4392;47.400;8.062;2022-12-24T05:43:22;15.00;99.90
8711;DHT22;4392;47.400;8.062;2022-12-24T05:45:48;15.10;99.90
8711;DHT22;4392;47.400;8.062;2022-12-24T05:48:13;15.10;98.40
8711;DHT22;4392;47.400;8.062;2022-12-24T05:50:40;14.60;98.90
8711;DHT22;4392;47.400;8.062;2022-12-24T05:53:06;14.10;99.60
8711;DHT22;4392;47.400;8.062;2022-12-24T05:55:32;13.90;99.90
8711;DHT22;4392;47.400;8.062;2022-12-24T05:57:59;13.70;99.90
8711;DHT22;4392;47.400;8.062;2022-12-24T06:00:24;13.60;99.90
8711;DHT22;4392;47.400;8.062;2022-12-24T06:02:50;14.50;99.90
8711;DHT22;4392;47.400;8.062;2022-12-24T06:05:16;14.70;99.90
8711;DHT22;4392;47.400;8.062;2022-12-24T06:07:42;14.30;99.90
8711;DHT22;4392;47.400;8.062;2022-12-24T06:10:08;13.90;99.90
8711;DHT22;4392;47.400;8.062;2022-12-24T06:12:34;13.70;99.90
8711;DHT22;4392;47.400;8.062;2022-12-24T06:15:00;13.50;99.90
8711;DHT22;4392;47.400;8.062;2022-12-24T06:17:26;13.40;99.90
8711;DHT22;4392;47.400;8.062;2022-12-24T06:19:52;13.40;99.90
8711;DHT22;4392;47.400;8.062;2022-12-24T06:22:17;13.20;99.90
8711;DHT22;4392;47.400;8.062;2022-12-24T06:24:43;13.20;99.90
8711;DHT22;4392;47.400;8.062;2022-12-24T06:27:09;13.20;99.90
8711;DHT22;4392;47.400;8.062;2022-12-24T06:29:35;13.10;99.90
8711;DHT22;4392;47.400;8.062;2022-12-24T06:32:01;13.00;99.90
8711;DHT22;4392;47.400;8.062;2022-12-24T06:34:27;13.00;99.90
8711;DHT22;4392;47.400;8.062;2022-12-24T06:36:52;13.00;99.90
8711;DHT22;4392;47.400;8.062;2022-12-24T06:39:18;13.00;99.90
8711;DHT22;4392;47.400;8.062;2022-12-24T06:41:44;12.90;99.90
8711;DHT22;4392;47.400;8.062;2022-12-24T06:44:10;12.90;99.90
8711;DHT22;4392;47.400;8.062;2022-12-24T06:46:37;12.80;99.90
8711;DHT22;4392;47.400;8.062;2022-12-24T06:49:03;12.80;99.90
8711;DHT22;4392;47.400;8.062;2022-12-24T06:51:29;12.80;99.90
8711;DHT22;4392;47.400;8.062;2022-12-24T06:53:55;12.70;99.90
8711;DHT22;4392;47.400;8.062;2022-12-24T06:56:21;12.70;99.90
8711;DHT22;4392;47.400;8.062;2022-12-24T06:58:47;12.70;99.90
8711;DHT22;4392;47.400;8.062;2022-12-24T07:01:14;12.60;99.90
8711;DHT22;4392;47.400;8.062;2022-12-24T07:03:41;12.60;99.90
8711;DHT22;4392;47.400;8.062;2022-12-24T07:06:20;12.60;99.90
8711;DHT22;4392;47.400;8.062;2022-12-24T07:08:48;12.60;99.90
8711;DHT22;4392;47.400;8.062;2022-12-24T07:11:14;12.60;99.90
8711;DHT22;4392;47.400;8.062;2022-12-24T07:13:40;12.40;99.90
8711;DHT22;4392;47.400;8.062;2022-12-24T07:16:06;12.40;99.90
8711;DHT22;4392;47.400;8.062;2022-12-24T07:18:32;12.40;99.90
8711;DHT22;4392;47.400;8.062;2022-12-24T07:20:58;12.40;99.90
8711;DHT22;4392;47.400;8.062;2022-12-24T07:23:25;12.40;99.90
8711;DHT22;4392;47.400;8.062;2022-12-24T07:25:51;12.30;99.90
8711;DHT22;4392;47.400;8.062;2022-12-24T07:28:17;12.30;99.90
8711;DHT22;4392;47.400;8.062;2022-12-24T07:30:42;12.30;99.90
8711;DHT22;4392;47.400;8.062;2022-12-24T07:33:08;12.90;99.90
8711;DHT22;4392;47.400;8.062;2022-12-24T07:35:34;13.80;99.90
8711;DHT22;4392;47.400;8.062;2022-12-24T07:38:01;13.40;99.90
8711;DHT22;4392;47.400;8.062;2022-12-24T07:40:27;13.20;99.90
8711;DHT22;4392;47.400;8.062;2022-12-24T07:42:53;13.00;99.90
8711;DHT22;4392;47.400;8.062;2022-12-24T07:45:19;13.40;99.90
8711;DHT22;4392;47.400;8.062;2022-12-24T07:47:44;13.20;99.90
8711;DHT22;4392;47.400;8.062;2022-12-24T07:50:10;12.90;99.90
8711;DHT22;4392;47.400;8.062;2022-12-24T07:52:36;12.70;99.90
8711;DHT22;4392;47.400;8.062;2022-12-24T07:55:02;12.60;99.90
8711;DHT22;4392;47.400;8.062;2022-12-24T07:57:29;12.60;99.90
8711;DHT22;4392;47.400;8.062;2022-12-24T07:59:55;12.60;99.90
8711;DHT22;4392;47.400;8.062;2022-12-24T08:02:20;12.50;99.90
8711;DHT22;4392;47.400;8.062;2022-12-24T08:04:46;12.50;99.90
8711;DHT22;4392;47.400;8.062;2022-12-24T08:07:12;12.50;99.90
8711;DHT22;4392;47.400;8.062;2022-12-24T08:09:38;12.50;99.90
8711;DHT22;4392;47.400;8.062;2022-12-24T08:12:04;12.40;99.90
8711;DHT22;4392;47.400;8.062;2022-12-24T08:14:30;12.30;99.90
8711;DHT22;4392;47.400;8.062;2022-12-24T08:16:57;12.30;99.90
8711;DHT22;4392;47.400;8.062;2022-12-24T08:19:23;12.30;99.90
8711;DHT22;4392;47.400;8.062;2022-12-24T08:21:49;12.20;99.90
8711;DHT22;4392;47.400;8.062;2022-12-24T08:24:15;12.20;99.90
8711;DHT22;4392;47.400;8.062;2022-12-24T08:26:40;12.20;99.90
8711;DHT22;4392;47.400;8.062;2022-12-24T08:29:06;12.20;99.90
8711;DHT22;4392;47.400;8.062;2022-12-24T08:31:33;12.90;99.90
8711;DHT22;4392;47.400;8.062;2022-12-24T08:34:05;13.00;99.90
8711;DHT22;4392;47.400;8.062;2022-12-24T08:36:31;12.80;99.90
8711;DHT22;4392;47.400;8.062;2022-12-24T08:38:57;12.60;99.90
8711;DHT22;4392;47.400;8.062;2022-12-24T08:41:23;12.50;99.90
8711;DHT22;4392;47.400;8.062;2022-12-24T08:43:49;12.50;99.90
8711;DHT22;4392;47.400;8.062;2022-12-24T08:46:15;12.40;99.90
8711;DHT22;4392;47.400;8.062;2022-12-24T08:48:43;12.40;99.90
8711;DHT22;4392;47.400;8.062;2022-12-24T08:51:10;13.10;99.90
8711;DHT22;4392;47.400;8.062;2022-12-24T08:53:37;12.90;99.90
8711;DHT22;4392;47.400;8.062;2022-12-24T08:56:11;12.60;99.90
8711;DHT22;4392;47.400;8.062;2022-12-24T08:58:38;12.30;99.90
8711;DHT22;4392;47.400;8.062;2022-12-24T09:01:16;12.30;99.90
8711;DHT22;4392;47.400;8.062;2022-12-24T09:03:42;12.30;99.90
8711;DHT22;4392;47.400;8.062;2022-12-24T09:06:09;12.20;99.90
8711;DHT22;4392;47.400;8.062;2022-12-24T09:08:35;12.20;99.90
8711;DHT22;4392;47.400;8.062;2022-12-24T09:11:06;12.20;99.90
8711;DHT22;4392;47.400;8.062;2022-12-24T09:13:35;12.20;99.90
8711;DHT22;4392;47.400;8.062;2022-12-24T09:16:01;12.10;99.90
8711;DHT22;4392;47.400;8.062;2022-12-24T09:18:27;12.10;99.90
8711;DHT22;4392;47.400;8.062;2022-12-24T09:21:01;12.10;99.90
8711;DHT22;4392;47.400;8.062;2022-12-24T09:23:27;12.10;99.90
8711;DHT22;4392;47.400;8.062;2022-12-24T09:25:53;12.10;99.90
8711;DHT22;4392;47.400;8.062;2022-12-24T09:28:19;12.10;99.90
8711;DHT22;4392;47.400;8.062;2022-12-24T09:30:53;12.00;99.90
8711;DHT22;4392;47.400;8.062;2022-12-24T09:33:19;12.00;99.90
8711;DHT22;4392;47.400;8.062;2022-12-24T09:35:44;12.10;99.90
8711;DHT22;4392;47.400;8.062;2022-12-24T09:38:10;12.10;99.90
8711;DHT22;4392;47.400;8.062;2022-12-24T09:40:38;12.10;99.90
8711;DHT22;4392;47.400;8.062;2022-12-24T09:43:13;12.00;99.90
8711;DHT22;4392;47.400;8.062;2022-12-24T09:45:48;12.00;99.90
8711;DHT22;4392;47.400;8.062;2022-12-24T09:48:19;12.10;99.90
8711;DHT22;4392;47.400;8.062;2022-12-24T09:51:19;12.10;99.90
8711;DHT22;4392;47.400;8.062;2022-12-24T09:53:56;12.10;99.90
8711;DHT22;4392;47.400;8.062;2022-12-24T09:56:34;12.10;99.90
8711;DHT22;4392;47.400;8.062;2022-12-24T09:59:04;12.10;99.90
8711;DHT22;4392;47.400;8.062;2022-12-24T10:01:34;12.20;99.90
8711;DHT22;4392;47.400;8.062;2022-12-24T10:04:09;12.20;99.90
8711;DHT22;4392;47.400;8.062;2022-12-24T10:06:59;12.20;99.90
8711;DHT22;4392;47.400;8.062;2022-12-24T10:15:27;12.20;99.90
8711;DHT22;4392;47.400;8.062;2022-12-24T10:23:35;12.10;99.90
8711;DHT22;4392;47.400;8.062;2022-12-24T10:26:24;12.10;99.90
8711;DHT22;4392;47.400;8.062;2022-12-24T10:28:59;12.20;99.90
8711;DHT22;4392;47.400;8.062;2022-12-24T10:31:29;12.10;99.90
8711;DHT22;4392;47.400;8.062;2022-12-24T10:34:12;12.00;99.90
8711;DHT22;4392;47.400;8.062;2022-12-24T10:36:39;12.10;99.90
8711;DHT22;4392;47.400;8.062;2022-12-24T10:39:19;12.10;99.90
8711;DHT22;4392;47.400;8.062;2022-12-24T10:41:48;12.10;99.90
8711;DHT22;4392;47.400;8.062;2022-12-24T10:44:18;12.20;99.90
8711;DHT22;4392;47.400;8.062;2022-12-24T10:46:46;12.20;99.90
8711;DHT22;4392;47.400;8.062;2022-12-24T10:49:15;12.20;99.90
8711;DHT22;4392;47.400;8.062;2022-12-24T10:51:54;12.20;99.90
8711;DHT22;4392;47.400;8.062;2022-12-24T10:54:25;12.20;99.90
8711;DHT22;4392;47.400;8.062;2022-12-24T10:56:57;12.20;99.90
8711;DHT22;4392;47.400;8.062;2022-12-24T10:59:33;12.20;99.90
8711;DHT22;4392;47.400;8.062;2022-12-24T11:02:01;12.20;99.90
8711;DHT22;4392;47.400;8.062;2022-12-24T11:04:32;12.20;99.90
8711;DHT22;4392;47.400;8.062;2022-12-24T11:07:19;12.30;99.90
8711;DHT22;4392;47.400;8.062;2022-12-24T11:09:57;12.30;99.90
8711;DHT22;4392;47.400;8.062;2022-12-24T11:12:49;12.30;99.90
8711;DHT22;4392;47.400;8.062;2022-12-24T11:15:19;12.30;99.90
8711;DHT22;4392;47.400;8.062;2022-12-24T11:18:02;12.30;99.90
8711;DHT22;4392;47.400;8.062;2022-12-24T11:20:31;12.30;99.90
8711;DHT22;4392;47.400;8.062;2022-12-24T11:22:58;12.30;99.90
8711;DHT22;4392;47.400;8.062;2022-12-24T11:25:29;12.30;99.90
8711;DHT22;4392;47.400;8.062;2022-12-24T11:28:22;12.30;99.90
8711;DHT22;4392;47.400;8.062;2022-12-24T11:31:15;12.30;99.90
8711;DHT22;4392;47.400;8.062;2022-12-24T11:33:48;12.30;99.90
8711;DHT22;4392;47.400;8.062;2022-12-24T11:36:16;12.40;99.90
8711;DHT22;4392;47.400;8.062;2022-12-24T11:38:55;12.40;99.90
8711;DHT22;4392;47.400;8.062;2022-12-24T11:41:23;12.40;99.90
8711;DHT22;4392;47.400;8.062;2022-12-24T11:43:58;12.40;99.90
8711;DHT22;4392;47.400;8.062;2022-12-24T11:54:42;12.30;99.90
8711;DHT22;4392;47.400;8.062;2022-12-24T11:57:13;12.30;99.90
8711;DHT22;4392;47.400;8.062;2022-12-24T11:59:47;12.30;99.90
8711;DHT22;4392;47.400;8.062;2022-12-24T12:02:27;12.30;99.90
8711;DHT22;4392;47.400;8.062;2022-12-24T12:04:57;12.40;99.90
8711;DHT22;4392;47.400;8.062;2022-12-24T12:07:34;12.40;99.90
8711;DHT22;4392;47.400;8.062;2022-12-24T12:12:41;12.30;99.90
8711;DHT22;4392;47.400;8.062;2022-12-24T12:15:11;12.30;99.90
8711;DHT22;4392;47.400;8.062;2022-12-24T12:20:30;12.30;99.90
8711;DHT22;4392;47.400;8.062;2022-12-24T12:23:30;12.30;99.90
8711;DHT22;4392;47.400;8.062;2022-12-24T12:26:17;12.30;99.90
8711;DHT22;4392;47.400;8.062;2022-12-24T12:31:54;12.30;99.90
8711;DHT22;4392;47.400;8.062;2022-12-24T12:37:06;12.20;99.90
8711;DHT22;4392;47.400;8.062;2022-12-24T12:39:35;12.20;99.90
8711;DHT22;4392;47.400;8.062;2022-12-24T12:50:13;12.20;99.90
8711;DHT22;4392;47.400;8.062;2022-12-24T13:10:18;12.10;99.90
8711;DHT22;4392;47.400;8.062;2022-12-24T13:21:19;12.00;99.90
8711;DHT22;4392;47.400;8.062;2022-12-24T13:23:47;12.00;99.90
8711;DHT22;4392;47.400;8.062;2022-12-24T13:26:13;12.00;99.90
8711;DHT22;4392;47.400;8.062;2022-12-24T13:28:40;12.00;99.90
8711;DHT22;4392;47.400;8.062;2022-12-24T13:33:55;12.00;99.90
8711;DHT22;4392;47.400;8.062;2022-12-24T13:36:22;12.00;99.90
8711;DHT22;4392;47.400;8.062;2022-12-24T13:38:55;11.90;99.90
8711;DHT22;4392;47.400;8.062;2022-12-24T13:46:51;11.90;99.90
8711;DHT22;4392;47.400;8.062;2022-12-24T13:49:34;11.90;99.90
8711;DHT22;4392;47.400;8.062;2022-12-24T13:54:39;12.00;99.90
8711;DHT22;4392;47.400;8.062;2022-12-24T13:57:40;12.00;99.90
8711;DHT22;4392;47.400;8.062;2022-12-24T14:03:23;12.00;99.90
8711;DHT22;4392;47.400;8.062;2022-12-24T14:06:00;12.00;99.90
8711;DHT22;4392;47.400;8.062;2022-12-24T14:08:54;12.00;99.90
8711;DHT22;4392;47.400;8.062;2022-12-24T14:11:23;12.00;99.90
8711;DHT22;4392;47.400;8.062;2022-12-24T14:13:50;11.60;99.90
8711;DHT22;4392;47.400;8.062;2022-12-24T14:16:30;11.60;99.90
8711;DHT22;4392;47.400;8.062;2022-12-24T14:19:21;11.70;99.90
8711;DHT22;4392;47.400;8.062;2022-12-24T14:22:24;11.80;99.90
8711;DHT22;4392;47.400;8.062;2022-12-24T14:27:42;11.90;99.90
8711;DHT22;4392;47.400;8.062;2022-12-24T14:30:24;12.00;99.90
8711;DHT22;4392;47.400;8.062;2022-12-24T14:32:50;12.00;99.90
8711;DHT22;4392;47.400;8.062;2022-12-24T14:35:24;12.00;99.90
8711;DHT22;4392;47.400;8.062;2022-12-24T14:38:06;12.00;99.90
8711;DHT22;4392;47.400;8.062;2022-12-24T14:40:42;12.00;99.90
8711;DHT22;4392;47.400;8.062;2022-12-24T14:43:21;12.00;99.90
8711;DHT22;4392;47.400;8.062;2022-12-24T14:49:21;12.00;99.90
8711;DHT22;4392;47.400;8.062;2022-12-24T14:52:05;12.00;99.90
8711;DHT22;4392;47.400;8.062;2022-12-24T14:54:41;12.00;99.90
8711;DHT22;4392;47.400;8.062;2022-12-24T15:05:14;11.90;99.90
8711;DHT22;4392;47.400;8.062;2022-12-24T15:08:03;12.00;99.90
8711;DHT22;4392;47.400;8.062;2022-12-24T15:10:37;12.00;99.90
8711;DHT22;4392;47.400;8.062;2022-12-24T15:13:20;11.90;99.90
8711;DHT22;4392;47.400;8.062;2022-12-24T15:15:48;12.00;99.90
8711;DHT22;4392;47.400;8.062;2022-12-24T15:18:17;11.90;99.90
8711;DHT22;4392;47.400;8.062;2022-12-24T15:20:46;11.90;99.90
8711;DHT22;4392;47.400;8.062;2022-12-24T15:23:27;11.90;99.90
8711;DHT22;4392;47.400;8.062;2022-12-24T15:26:19;11.90;99.90
8711;DHT22;4392;47.400;8.062;2022-12-24T15:28:45;11.80;99.90
8711;DHT22;4392;47.400;8.062;2022-12-24T15:31:20;11.80;99.90
8711;DHT22;4392;47.400;8.062;2022-12-24T15:33:47;11.80;99.90
8711;DHT22;4392;47.400;8.062;2022-12-24T15:36:31;11.80;99.90
8711;DHT22;4392;47.400;8.062;2022-12-24T15:39:01;11.80;99.90
8711;DHT22;4392;47.400;8.062;2022-12-24T15:41:40;11.80;99.90
8711;DHT22;4392;47.400;8.062;2022-12-24T15:44:27;11.80;99.90
8711;DHT22;4392;47.400;8.062;2022-12-24T15:47:01;11.80;99.90
8711;DHT22;4392;47.400;8.062;2022-12-24T15:49:29;11.80;99.90
8711;DHT22;4392;47.400;8.062;2022-12-24T15:52:07;11.80;99.90
8711;DHT22;4392;47.400;8.062;2022-12-24T15:54:33;11.80;99.90
8711;DHT22;4392;47.400;8.062;2022-12-24T15:57:52;11.70;99.90
8711;DHT22;4392;47.400;8.062;2022-12-24T16:00:00;11.90;99.90
8711;DHT22;4392;47.400;8.062;2022-12-24T16:02:43;11.90;99.90
8711;DHT22;4392;47.400;8.062;2022-12-24T16:10:32;11.80;99.90
8711;DHT22;4392;47.400;8.062;2022-12-24T16:12:59;11.80;99.90
8711;DHT22;4392;47.400;8.062;2022-12-24T16:15:25;11.80;99.90
8711;DHT22;4392;47.400;8.062;2022-12-24T16:17:51;11.80;99.90
8711;DHT22;4392;47.400;8.062;2022-12-24T16:20:20;11.80;99.90
8711;DHT22;4392;47.400;8.062;2022-12-24T16:22:47;11.80;99.90
8711;DHT22;4392;47.400;8.062;2022-12-24T16:25:24;11.80;99.90
8711;DHT22;4392;47.400;8.062;2022-12-24T16:27:50;11.80;99.90
8711;DHT22;4392;47.400;8.062;2022-12-24T16:30:17;11.80;99.90
8711;DHT22;4392;47.400;8.062;2022-12-24T16:32:44;11.80;99.90
8711;DHT22;4392;47.400;8.062;2022-12-24T16:35:25;11.80;99.90
8711;DHT22;4392;47.400;8.062;2022-12-24T16:37:52;11.80;99.90
8711;DHT22;4392;47.400;8.062;2022-12-24T16:40:18;11.80;99.90
8711;DHT22;4392;47.400;8.062;2022-12-24T16:42:44;11.80;99.90
8711;DHT22;4392;47.400;8.062;2022-12-24T16:45:28;11.80;99.90
8711;DHT22;4392;47.400;8.062;2022-12-24T16:47:59;11.90;99.90
8711;DHT22;4392;47.400;8.062;2022-12-24T16:50:25;11.90;99.90
8711;DHT22;4392;47.400;8.062;2022-12-24T16:52:51;11.80;99.90
8711;DHT22;4392;47.400;8.062;2022-12-24T16:55:17;11.80;99.90
8711;DHT22;4392;47.400;8.062;2022-12-24T16:57:43;11.70;99.90
8711;DHT22;4392;47.400;8.062;2022-12-24T17:00:22;11.70;99.90
8711;DHT22;4392;47.400;8.062;2022-12-24T17:02:50;11.70;99.90
8711;DHT22;4392;47.400;8.062;2022-12-24T17:05:15;11.70;99.90
8711;DHT22;4392;47.400;8.062;2022-12-24T17:07:48;11.70;99.90
8711;DHT22;4392;47.400;8.062;2022-12-24T17:10:14;11.70;99.90
8711;DHT22;4392;47.400;8.062;2022-12-24T17:12:41;11.80;99.90
8711;DHT22;4392;47.400;8.062;2022-12-24T17:15:07;11.80;99.90
8711;DHT22;4392;47.400;8.062;2022-12-24T17:17:34;11.80;99.90
8711;DHT22;4392;47.400;8.062;2022-12-24T17:20:03;11.80;99.90
8711;DHT22;4392;47.400;8.062;2022-12-24T17:22:29;11.80;99.90
8711;DHT22;4392;47.400;8.062;2022-12-24T17:24:55;11.80;99.90
8711;DHT22;4392;47.400;8.062;2022-12-24T17:27:21;11.90;99.90
8711;DHT22;4392;47.400;8.062;2022-12-24T17:29:47;11.80;99.90
8711;DHT22;4392;47.400;8.062;2022-12-24T17:32:13;11.80;99.90
8711;DHT22;4392;47.400;8.062;2022-12-24T17:34:39;11.80;99.90
8711;DHT22;4392;47.400;8.062;2022-12-24T17:37:04;11.80;99.90
8711;DHT22;4392;47.400;8.062;2022-12-24T17:39:30;11.70;99.90
8711;DHT22;4392;47.400;8.062;2022-12-24T17:41:56;11.70;99.90
8711;DHT22;4392;47.400;8.062;2022-12-24T17:44:22;11.70;99.90
8711;DHT22;4392;47.400;8.062;2022-12-24T17:46:51;11.70;99.90
8711;DHT22;4392;47.400;8.062;2022-12-24T17:49:17;11.70;99.90
8711;DHT22;4392;47.400;8.062;2022-12-24T17:51:42;11.70;99.90
8711;DHT22;4392;47.400;8.062;2022-12-24T17:54:08;11.70;99.90
8711;DHT22;4392;47.400;8.062;2022-12-24T17:56:34;11.70;99.90
8711;DHT22;4392;47.400;8.062;2022-12-24T17:59:03;11.70;99.90
8711;DHT22;4392;47.400;8.062;2022-12-24T18:01:28;11.60;99.90
8711;DHT22;4392;47.400;8.062;2022-12-24T18:03:58;11.70;99.90
8711;DHT22;4392;47.400;8.062;2022-12-24T18:06:25;11.70;99.90
8711;DHT22;4392;47.400;8.062;2022-12-24T18:08:51;11.60;99.90
8711;DHT22;4392;47.400;8.062;2022-12-24T18:11:31;11.60;99.90
8711;DHT22;4392;47.400;8.062;2022-12-24T18:13:59;11.60;99.90
8711;DHT22;4392;47.400;8.062;2022-12-24T18:16:31;11.60;99.90
8711;DHT22;4392;47.400;8.062;2022-12-24T18:18:58;11.60;99.90
8711;DHT22;4392;47.400;8.062;2022-12-24T18:21:26;11.60;99.90